Аэропорт: Уфа. Уфа

ICAO: UWUU

METAR:
2022-01-28 08:00:00
UWUU 280800Z 00000MPS 4000 BR SCT030 M18/M20 Q1021 R14R/490542 NOSIG
METAR:
2022-01-28 04:45:00
TAF UWUU 280445Z 2806/2906 VRB01MPS 4000 -SN BR OVC006 TXM10/2809Z TNM17/2806Z TEMPO 2806/2903 03003MPS 2100 -SN SCT004